PWSweather.com
Personal Weather Stations
Station Observations
WUFYI1828
Erie, CO

Erie, CO

Lat: 40.03382874, Lon: -105.04464722

Elevation: 5212

Station Type:

High Low Average
Temperature 46.6°F8.1°C 41.2°F5.1°C 44.2°F6.8°C
Dew Point 43.5°F6.4°C 37.9°F3.3°C 40.0°F4.4°C
Winds 7.2 mph 11.6 kmh Calm Calm 1.0 mph E1.6 kmh E
Wind Gusts 10.3 mph16.6 kmh -- 2.0 mph3.2 kmh
Humidity 95% 76% 85%
Pressure 30.15 in1021.0 mb 30.02 in1016.6 mb -
Precipitation 0.01 in0.3 mm - -
Hour Temp Dew Point Humidity Winds Wind Gusts Pressure Precip Precip Rate Daily Precip Total
12:04 AM 46.9°F8.3°C 43.9°F6.6°C 89% 0.9 mph SE1.4 kmh SE 1.1 mph1.8 kmh 30.00 in1015.9 mb 0.00 in0.0 mm 0.00 in0.0 mm 0.00 in0.0 mm
12:09 AM 46.9°F8.3°C 43.9°F6.6°C 89% 1.3 mph SSW2.1 kmh SSW 2.2 mph3.5 kmh 30.00 in1015.9 mb 0.00 in0.0 mm 0.00 in0.0 mm 0.00 in0.0 mm
12:14 AM 46.8°F8.2°C 43.7°F6.5°C 89% 2.2 mph SSE3.5 kmh SSE 3.4 mph5.5 kmh 30.01 in1016.3 mb 0.00 in0.0 mm 0.00 in0.0 mm 0.00 in0.0 mm
12:19 AM 46.8°F8.2°C 44.1°F6.7°C 90% 0.4 mph ENE0.6 kmh ENE 1.1 mph1.8 kmh 30.01 in1016.3 mb 0.00 in0.0 mm 0.00 in0.0 mm 0.00 in0.0 mm
12:24 AM 46.8°F8.2°C 44.1°F6.7°C 90% Calm Calm -- 30.01 in1016.3 mb 0.00 in0.0 mm 0.00 in0.0 mm 0.00 in0.0 mm
12:29 AM 46.8°F8.2°C 44.1°F6.7°C 90% 0.2 mph E0.3 kmh E 1.1 mph1.8 kmh 30.01 in1016.3 mb 0.00 in0.0 mm 0.00 in0.0 mm 0.00 in0.0 mm
12:34 AM 46.8°F8.2°C 44.1°F6.7°C 90% Calm Calm -- 30.01 in1016.3 mb 0.00 in0.0 mm 0.00 in0.0 mm 0.00 in0.0 mm
12:39 AM 46.6°F8.1°C 44.2°F6.8°C 91% 0.4 mph E0.6 kmh E 1.1 mph1.8 kmh 30.01 in1016.3 mb 0.00 in0.0 mm 0.00 in0.0 mm 0.00 in0.0 mm
12:44 AM 46.6°F8.1°C 43.9°F6.6°C 90% Calm Calm -- 30.00 in1015.9 mb 0.00 in0.0 mm 0.00 in0.0 mm 0.00 in0.0 mm
12:49 AM 46.4°F8.0°C 43.7°F6.5°C 90% 1.3 mph NE2.1 kmh NE 2.2 mph3.5 kmh 30.00 in1015.9 mb 0.00 in0.0 mm 0.00 in0.0 mm 0.00 in0.0 mm
12:54 AM 46.6°F8.1°C 43.2°F6.2°C 88% 2.2 mph ESE3.5 kmh ESE 3.4 mph5.5 kmh 30.01 in1016.3 mb 0.00 in0.0 mm 0.00 in0.0 mm 0.00 in0.0 mm
12:59 AM 46.6°F8.1°C 43.2°F6.2°C 88% 0.2 mph ENE0.3 kmh ENE 1.1 mph1.8 kmh 30.01 in1016.3 mb 0.00 in0.0 mm 0.00 in0.0 mm 0.00 in0.0 mm
01:04 AM 46.4°F8.0°C 42.8°F6.0°C 87% 1.1 mph NE1.8 kmh NE 2.2 mph3.5 kmh 30.02 in1016.6 mb 0.00 in0.0 mm 0.00 in0.0 mm 0.00 in0.0 mm
01:09 AM 46.4°F8.0°C 42.8°F6.0°C 87% 1.3 mph ENE2.1 kmh ENE 2.2 mph3.5 kmh 30.02 in1016.6 mb 0.00 in0.0 mm 0.00 in0.0 mm 0.00 in0.0 mm
01:14 AM 46.4°F8.0°C 42.8°F6.0°C 87% 1.3 mph SE2.1 kmh SE 2.2 mph3.5 kmh 30.02 in1016.6 mb 0.00 in0.0 mm 0.00 in0.0 mm 0.00 in0.0 mm
01:19 AM 46.2°F7.9°C 42.8°F6.0°C 88% 0.2 mph E0.3 kmh E 1.1 mph1.8 kmh 30.02 in1016.6 mb 0.00 in0.0 mm 0.00 in0.0 mm 0.00 in0.0 mm
01:24 AM 46.2°F7.9°C 42.8°F6.0°C 88% 0.9 mph SSE1.4 kmh SSE 1.1 mph1.8 kmh 30.02 in1016.6 mb 0.00 in0.0 mm 0.00 in0.0 mm 0.00 in0.0 mm
01:29 AM 46.2°F7.9°C 42.8°F6.0°C 88% 0.2 mph E0.3 kmh E 1.1 mph1.8 kmh 30.02 in1016.6 mb 0.00 in0.0 mm 0.00 in0.0 mm 0.00 in0.0 mm
01:34 AM 46.2°F7.9°C 42.8°F6.0°C 88% 0.7 mph E1.1 kmh E 1.1 mph1.8 kmh 30.02 in1016.6 mb 0.00 in0.0 mm 0.00 in0.0 mm 0.00 in0.0 mm
01:39 AM 46.2°F7.9°C 42.8°F6.0°C 88% 0.9 mph NE1.4 kmh NE 2.2 mph3.5 kmh 30.02 in1016.6 mb 0.00 in0.0 mm 0.00 in0.0 mm 0.00 in0.0 mm
01:44 AM 46.2°F7.9°C 42.8°F6.0°C 88% 2.9 mph NE4.7 kmh NE 4.5 mph7.2 kmh 30.03 in1016.9 mb 0.00 in0.0 mm 0.00 in0.0 mm 0.00 in0.0 mm
01:49 AM 46.2°F7.9°C 42.8°F6.0°C 88% 0.7 mph ENE1.1 kmh ENE 1.1 mph1.8 kmh 30.02 in1016.6 mb 0.00 in0.0 mm 0.00 in0.0 mm 0.00 in0.0 mm
01:54 AM 46.2°F7.9°C 42.8°F6.0°C 88% 0.4 mph ENE0.6 kmh ENE 1.1 mph1.8 kmh 30.02 in1016.6 mb 0.00 in0.0 mm 0.00 in0.0 mm 0.00 in0.0 mm
01:59 AM 46.2°F7.9°C 43.2°F6.2°C 89% 0.4 mph ENE0.6 kmh ENE 1.1 mph1.8 kmh 30.02 in1016.6 mb 0.00 in0.0 mm 0.00 in0.0 mm 0.00 in0.0 mm
02:04 AM 46.0°F7.8°C 43.3°F6.3°C 90% 0.9 mph NE1.4 kmh NE 2.2 mph3.5 kmh 30.03 in1016.9 mb 0.00 in0.0 mm 0.00 in0.0 mm 0.00 in0.0 mm
02:09 AM 46.0°F7.8°C 43.3°F6.3°C 90% 1.1 mph SE1.8 kmh SE 2.2 mph3.5 kmh 30.02 in1016.6 mb 0.00 in0.0 mm 0.00 in0.0 mm 0.00 in0.0 mm
02:14 AM 46.0°F7.8°C 43.3°F6.3°C 90% 1.6 mph NE2.6 kmh NE 4.5 mph7.2 kmh 30.02 in1016.6 mb 0.00 in0.0 mm 0.00 in0.0 mm 0.00 in0.0 mm
02:19 AM 45.9°F7.7°C 43.2°F6.2°C 90% 2.2 mph ENE3.5 kmh ENE 3.4 mph5.5 kmh 30.02 in1016.6 mb 0.00 in0.0 mm 0.00 in0.0 mm 0.00 in0.0 mm
02:24 AM 45.7°F7.6°C 43.5°F6.4°C 92% 2.7 mph ENE4.3 kmh ENE 3.4 mph5.5 kmh 30.03 in1016.9 mb 0.00 in0.0 mm 0.00 in0.0 mm 0.00 in0.0 mm
02:29 AM 45.3°F7.4°C 43.3°F6.3°C 93% 4.5 mph NE7.2 kmh NE 5.8 mph9.3 kmh 30.02 in1016.6 mb 0.00 in0.0 mm 0.00 in0.0 mm 0.00 in0.0 mm
02:34 AM 45.1°F7.3°C 43.3°F6.3°C 94% 3.4 mph NE5.5 kmh NE 5.8 mph9.3 kmh 30.02 in1016.6 mb 0.00 in0.0 mm 0.00 in0.0 mm 0.00 in0.0 mm
02:39 AM 45.0°F7.2°C 43.0°F6.1°C 93% 1.3 mph NE2.1 kmh NE 2.2 mph3.5 kmh 30.03 in1016.9 mb 0.00 in0.0 mm 0.00 in0.0 mm 0.00 in0.0 mm
02:44 AM 44.8°F7.1°C 43.0°F6.1°C 94% 2.5 mph NE4.0 kmh NE 3.4 mph5.5 kmh 30.03 in1016.9 mb 0.00 in0.0 mm 0.00 in0.0 mm 0.00 in0.0 mm
02:49 AM 44.4°F6.9°C 42.4°F5.8°C 93% 4.9 mph NE7.9 kmh NE 6.9 mph11.1 kmh 30.02 in1016.6 mb 0.07 in1.8 mm 0.84 in21.3 mm 0.01 in0.3 mm
02:54 AM 44.4°F6.9°C 42.3°F5.7°C 92% 2.9 mph NE4.7 kmh NE 3.4 mph5.5 kmh 30.02 in1016.6 mb 0.07 in1.8 mm 0.00 in0.0 mm 0.01 in0.3 mm
02:59 AM 44.2°F6.8°C 42.1°F5.6°C 92% 1.6 mph E2.6 kmh E 2.2 mph3.5 kmh 30.03 in1016.9 mb 0.00 in0.0 mm 0.00 in0.0 mm 0.01 in0.3 mm
03:04 AM 44.2°F6.8°C 42.1°F5.6°C 92% 5.1 mph ENE8.2 kmh ENE 6.9 mph11.1 kmh 30.03 in1016.9 mb 0.00 in0.0 mm 0.00 in0.0 mm 0.01 in0.3 mm
03:09 AM 44.2°F6.8°C 41.9°F5.5°C 91% 3.4 mph NE5.5 kmh NE 5.8 mph9.3 kmh 30.03 in1016.9 mb 0.00 in0.0 mm 0.00 in0.0 mm 0.01 in0.3 mm
03:14 AM 44.1°F6.7°C 41.9°F5.5°C 92% 2.2 mph NE3.5 kmh NE 2.2 mph3.5 kmh 30.03 in1016.9 mb 0.00 in0.0 mm 0.00 in0.0 mm 0.01 in0.3 mm
03:19 AM 43.9°F6.6°C 41.9°F5.5°C 93% 5.1 mph ENE8.2 kmh ENE 6.9 mph11.1 kmh 30.04 in1017.3 mb 0.00 in0.0 mm 0.00 in0.0 mm 0.01 in0.3 mm
03:24 AM 43.9°F6.6°C 41.9°F5.5°C 93% 2.2 mph ENE3.5 kmh ENE 3.4 mph5.5 kmh 30.04 in1017.3 mb 0.00 in0.0 mm 0.00 in0.0 mm 0.01 in0.3 mm
03:29 AM 43.7°F6.5°C 41.7°F5.4°C 93% 1.8 mph E2.9 kmh E 2.2 mph3.5 kmh 30.04 in1017.3 mb 0.00 in0.0 mm 0.00 in0.0 mm 0.01 in0.3 mm
03:34 AM 43.9°F6.6°C 42.1°F5.6°C 94% 1.8 mph ENE2.9 kmh ENE 3.4 mph5.5 kmh 30.04 in1017.3 mb 0.00 in0.0 mm 0.00 in0.0 mm 0.01 in0.3 mm
03:39 AM 43.7°F6.5°C 41.9°F5.5°C 94% 0.2 mph E0.3 kmh E 1.1 mph1.8 kmh 30.04 in1017.3 mb 0.00 in0.0 mm 0.00 in0.0 mm 0.01 in0.3 mm
03:44 AM 43.5°F6.4°C 41.5°F5.3°C 93% 3.4 mph ENE5.5 kmh ENE 4.5 mph7.2 kmh 30.04 in1017.3 mb 0.00 in0.0 mm 0.00 in0.0 mm 0.01 in0.3 mm
03:49 AM 43.5°F6.4°C 41.5°F5.3°C 93% 4.0 mph NE6.4 kmh NE 6.9 mph11.1 kmh 30.05 in1017.6 mb 0.00 in0.0 mm 0.00 in0.0 mm 0.01 in0.3 mm
03:54 AM 43.3°F6.3°C 41.5°F5.3°C 94% 2.2 mph E3.5 kmh E 3.4 mph5.5 kmh 30.06 in1017.9 mb 0.00 in0.0 mm 0.00 in0.0 mm 0.01 in0.3 mm
03:59 AM 43.2°F6.2°C 41.2°F5.1°C 93% 3.1 mph ENE5.0 kmh ENE 4.5 mph7.2 kmh 30.06 in1017.9 mb 0.00 in0.0 mm 0.00 in0.0 mm 0.01 in0.3 mm
04:04 AM 43.0°F6.1°C 41.0°F5.0°C 93% 3.4 mph ENE5.5 kmh ENE 4.5 mph7.2 kmh 30.05 in1017.6 mb 0.00 in0.0 mm 0.00 in0.0 mm 0.01 in0.3 mm
04:09 AM 43.0°F6.1°C 41.0°F5.0°C 93% 2.2 mph E3.5 kmh E 3.4 mph5.5 kmh 30.05 in1017.6 mb 0.00 in0.0 mm 0.00 in0.0 mm 0.01 in0.3 mm
04:14 AM 42.8°F6.0°C 40.8°F4.9°C 93% 1.8 mph NE2.9 kmh NE 2.2 mph3.5 kmh 30.06 in1017.9 mb 0.00 in0.0 mm 0.00 in0.0 mm 0.01 in0.3 mm
04:19 AM 42.8°F6.0°C 41.0°F5.0°C 94% 2.2 mph ENE3.5 kmh ENE 3.4 mph5.5 kmh 30.07 in1018.3 mb 0.00 in0.0 mm 0.00 in0.0 mm 0.01 in0.3 mm
04:24 AM 42.8°F6.0°C 41.0°F5.0°C 94% 0.9 mph ENE1.4 kmh ENE 2.2 mph3.5 kmh 30.05 in1017.6 mb 0.00 in0.0 mm 0.00 in0.0 mm 0.01 in0.3 mm
04:29 AM 42.8°F6.0°C 41.0°F5.0°C 94% 0.7 mph E1.1 kmh E 1.1 mph1.8 kmh 30.06 in1017.9 mb 0.00 in0.0 mm 0.00 in0.0 mm 0.01 in0.3 mm
04:34 AM 42.8°F6.0°C 40.8°F4.9°C 93% 2.7 mph NE4.3 kmh NE 4.5 mph7.2 kmh 30.06 in1017.9 mb 0.00 in0.0 mm 0.00 in0.0 mm 0.01 in0.3 mm
04:39 AM 43.0°F6.1°C 40.8°F4.9°C 92% 2.5 mph ENE4.0 kmh ENE 3.4 mph5.5 kmh 30.07 in1018.3 mb 0.00 in0.0 mm 0.00 in0.0 mm 0.01 in0.3 mm
04:44 AM 43.0°F6.1°C 40.8°F4.9°C 92% 2.2 mph NE3.5 kmh NE 2.2 mph3.5 kmh 30.07 in1018.3 mb 0.00 in0.0 mm 0.00 in0.0 mm 0.01 in0.3 mm
04:49 AM 43.0°F6.1°C 41.0°F5.0°C 93% 0.9 mph NE1.4 kmh NE 1.1 mph1.8 kmh 30.06 in1017.9 mb 0.00 in0.0 mm 0.00 in0.0 mm 0.01 in0.3 mm
04:54 AM 42.8°F6.0°C 40.6°F4.8°C 92% 0.4 mph E0.6 kmh E 1.1 mph1.8 kmh 30.06 in1017.9 mb 0.00 in0.0 mm 0.00 in0.0 mm 0.01 in0.3 mm
04:59 AM 42.8°F6.0°C 40.6°F4.8°C 92% 0.7 mph ENE1.1 kmh ENE 1.1 mph1.8 kmh 30.07 in1018.3 mb 0.00 in0.0 mm 0.00 in0.0 mm 0.01 in0.3 mm
05:04 AM 42.6°F5.9°C 40.6°F4.8°C 93% 0.2 mph E0.3 kmh E 1.1 mph1.8 kmh 30.06 in1017.9 mb 0.00 in0.0 mm 0.00 in0.0 mm 0.01 in0.3 mm
05:09 AM 42.6°F5.9°C 40.8°F4.9°C 94% Calm Calm -- 30.07 in1018.3 mb 0.00 in0.0 mm 0.00 in0.0 mm 0.01 in0.3 mm
05:14 AM 42.6°F5.9°C 41.2°F5.1°C 95% Calm Calm -- 30.06 in1017.9 mb 0.00 in0.0 mm 0.00 in0.0 mm 0.01 in0.3 mm
05:19 AM 42.6°F5.9°C 41.2°F5.1°C 95% 0.9 mph ENE1.4 kmh ENE 1.1 mph1.8 kmh 30.06 in1017.9 mb 0.00 in0.0 mm 0.00 in0.0 mm 0.01 in0.3 mm
05:24 AM 42.4°F5.8°C 40.6°F4.8°C 94% 0.7 mph E1.1 kmh E 1.1 mph1.8 kmh 30.07 in1018.3 mb 0.00 in0.0 mm 0.00 in0.0 mm 0.01 in0.3 mm
05:29 AM 42.3°F5.7°C 40.3°F4.6°C 93% 0.9 mph ENE1.4 kmh ENE 1.1 mph1.8 kmh 30.08 in1018.6 mb 0.00 in0.0 mm 0.00 in0.0 mm 0.01 in0.3 mm
05:34 AM 42.4°F5.8°C 40.5°F4.7°C 93% 1.8 mph ENE2.9 kmh ENE 2.2 mph3.5 kmh 30.07 in1018.3 mb 0.00 in0.0 mm 0.00 in0.0 mm 0.01 in0.3 mm
05:39 AM 42.3°F5.7°C 40.1°F4.5°C 92% 2.2 mph NE3.5 kmh NE 3.4 mph5.5 kmh 30.07 in1018.3 mb 0.00 in0.0 mm 0.00 in0.0 mm 0.01 in0.3 mm
05:44 AM 42.3°F5.7°C 40.1°F4.5°C 92% 1.6 mph ENE2.6 kmh ENE 3.4 mph5.5 kmh 30.07 in1018.3 mb 0.00 in0.0 mm 0.00 in0.0 mm 0.01 in0.3 mm
05:49 AM 42.3°F5.7°C 40.1°F4.5°C 92% 0.9 mph N1.4 kmh N 2.2 mph3.5 kmh 30.07 in1018.3 mb 0.00 in0.0 mm 0.00 in0.0 mm 0.01 in0.3 mm
05:54 AM 42.3°F5.7°C 40.1°F4.5°C 92% 0.2 mph SSE0.3 kmh SSE 1.1 mph1.8 kmh 30.07 in1018.3 mb 0.00 in0.0 mm 0.00 in0.0 mm 0.01 in0.3 mm
05:59 AM 42.3°F5.7°C 40.1°F4.5°C 92% 0.9 mph NE1.4 kmh NE 2.2 mph3.5 kmh 30.07 in1018.3 mb 0.00 in0.0 mm 0.00 in0.0 mm 0.01 in0.3 mm
06:04 AM 42.3°F5.7°C 40.1°F4.5°C 92% 0.4 mph SSE0.6 kmh SSE 1.1 mph1.8 kmh 30.08 in1018.6 mb 0.00 in0.0 mm 0.00 in0.0 mm 0.01 in0.3 mm
06:09 AM 42.3°F5.7°C 39.9°F4.4°C 91% 0.7 mph NE1.1 kmh NE 1.1 mph1.8 kmh 30.08 in1018.6 mb 0.00 in0.0 mm 0.00 in0.0 mm 0.01 in0.3 mm
06:14 AM 42.3°F5.7°C 40.1°F4.5°C 92% 0.2 mph ESE0.3 kmh ESE 1.1 mph1.8 kmh 30.08 in1018.6 mb 0.00 in0.0 mm 0.00 in0.0 mm 0.01 in0.3 mm
06:19 AM 42.1°F5.6°C 39.7°F4.3°C 91% 2.0 mph NE3.2 kmh NE 3.4 mph5.5 kmh 30.08 in1018.6 mb 0.00 in0.0 mm 0.00 in0.0 mm 0.01 in0.3 mm
06:24 AM 42.3°F5.7°C 39.9°F4.4°C 91% 1.3 mph NE2.1 kmh NE 2.2 mph3.5 kmh 30.09 in1019.0 mb 0.00 in0.0 mm 0.00 in0.0 mm 0.01 in0.3 mm
06:29 AM 42.3°F5.7°C 40.1°F4.5°C 92% Calm Calm -- 30.09 in1019.0 mb 0.00 in0.0 mm 0.00 in0.0 mm 0.01 in0.3 mm
06:34 AM 42.3°F5.7°C 39.6°F4.2°C 90% 1.3 mph NE2.1 kmh NE 2.2 mph3.5 kmh 30.08 in1018.6 mb 0.00 in0.0 mm 0.00 in0.0 mm 0.01 in0.3 mm
06:39 AM 42.3°F5.7°C 39.6°F4.2°C 90% 1.3 mph E2.1 kmh E 2.2 mph3.5 kmh 30.09 in1019.0 mb 0.00 in0.0 mm 0.00 in0.0 mm 0.01 in0.3 mm
06:44 AM 42.3°F5.7°C 39.9°F4.4°C 91% Calm Calm -- 30.09 in1019.0 mb 0.00 in0.0 mm 0.00 in0.0 mm 0.01 in0.3 mm
06:49 AM 42.4°F5.8°C 39.4°F4.1°C 89% 2.7 mph NE4.3 kmh NE 3.4 mph5.5 kmh 30.09 in1019.0 mb 0.00 in0.0 mm 0.00 in0.0 mm 0.01 in0.3 mm
06:54 AM 42.6°F5.9°C 39.9°F4.4°C 90% 0.9 mph E1.4 kmh E 1.1 mph1.8 kmh 30.09 in1019.0 mb 0.00 in0.0 mm 0.00 in0.0 mm 0.01 in0.3 mm
06:59 AM 42.6°F5.9°C 39.6°F4.2°C 89% 2.9 mph ENE4.7 kmh ENE 3.4 mph5.5 kmh 30.10 in1019.3 mb 0.00 in0.0 mm 0.00 in0.0 mm 0.01 in0.3 mm
07:04 AM 42.6°F5.9°C 39.6°F4.2°C 89% 3.4 mph NE5.5 kmh NE 4.5 mph7.2 kmh 30.10 in1019.3 mb 0.00 in0.0 mm 0.00 in0.0 mm 0.01 in0.3 mm
07:09 AM 42.6°F5.9°C 39.6°F4.2°C 89% 1.3 mph ENE2.1 kmh ENE 2.2 mph3.5 kmh 30.10 in1019.3 mb 0.00 in0.0 mm 0.00 in0.0 mm 0.01 in0.3 mm
07:14 AM 42.6°F5.9°C 39.6°F4.2°C 89% 2.5 mph NE4.0 kmh NE 3.4 mph5.5 kmh 30.11 in1019.6 mb 0.00 in0.0 mm 0.00 in0.0 mm 0.01 in0.3 mm
07:19 AM 42.6°F5.9°C 39.6°F4.2°C 89% 0.9 mph ESE1.4 kmh ESE 2.2 mph3.5 kmh 30.10 in1019.3 mb 0.00 in0.0 mm 0.00 in0.0 mm 0.01 in0.3 mm
07:24 AM 42.6°F5.9°C 39.6°F4.2°C 89% 1.6 mph E2.6 kmh E 2.2 mph3.5 kmh 30.10 in1019.3 mb 0.00 in0.0 mm 0.00 in0.0 mm 0.01 in0.3 mm
07:29 AM 42.3°F5.7°C 38.5°F3.6°C 86% 3.1 mph NE5.0 kmh NE 6.9 mph11.1 kmh 30.11 in1019.6 mb 0.00 in0.0 mm 0.00 in0.0 mm 0.01 in0.3 mm
07:34 AM 41.9°F5.5°C 38.3°F3.5°C 87% 3.4 mph ENE5.5 kmh ENE 6.9 mph11.1 kmh 30.12 in1020.0 mb 0.00 in0.0 mm 0.00 in0.0 mm 0.01 in0.3 mm
07:39 AM 42.1°F5.6°C 38.5°F3.6°C 87% 2.2 mph E3.5 kmh E 5.8 mph9.3 kmh 30.11 in1019.6 mb 0.00 in0.0 mm 0.00 in0.0 mm 0.01 in0.3 mm
07:44 AM 42.1°F5.6°C 38.5°F3.6°C 87% 4.7 mph NE7.6 kmh NE 5.8 mph9.3 kmh 30.12 in1020.0 mb 0.00 in0.0 mm 0.00 in0.0 mm 0.01 in0.3 mm
07:49 AM 42.1°F5.6°C 38.5°F3.6°C 87% 5.8 mph NE9.3 kmh NE 8.1 mph13.0 kmh 30.12 in1020.0 mb 0.00 in0.0 mm 0.00 in0.0 mm 0.01 in0.3 mm
07:54 AM 42.1°F5.6°C 38.7°F3.7°C 88% 2.5 mph ENE4.0 kmh ENE 6.9 mph11.1 kmh 30.12 in1020.0 mb 0.00 in0.0 mm 0.00 in0.0 mm 0.01 in0.3 mm
07:59 AM 42.1°F5.6°C 38.5°F3.6°C 87% 3.4 mph E5.5 kmh E 6.9 mph11.1 kmh 30.12 in1020.0 mb 0.00 in0.0 mm 0.00 in0.0 mm 0.01 in0.3 mm
08:04 AM 42.1°F5.6°C 38.5°F3.6°C 87% 4.9 mph NE7.9 kmh NE 6.9 mph11.1 kmh 30.12 in1020.0 mb 0.00 in0.0 mm 0.00 in0.0 mm 0.01 in0.3 mm
08:09 AM 42.3°F5.7°C 38.7°F3.7°C 87% 1.8 mph ENE2.9 kmh ENE 2.2 mph3.5 kmh 30.12 in1020.0 mb 0.00 in0.0 mm 0.00 in0.0 mm 0.01 in0.3 mm
08:14 AM 42.4°F5.8°C 38.8°F3.8°C 87% 0.7 mph E1.1 kmh E 1.1 mph1.8 kmh 30.12 in1020.0 mb 0.00 in0.0 mm 0.00 in0.0 mm 0.01 in0.3 mm
08:19 AM 42.4°F5.8°C 39.0°F3.9°C 88% 1.3 mph E2.1 kmh E 2.2 mph3.5 kmh 30.12 in1020.0 mb 0.00 in0.0 mm 0.00 in0.0 mm 0.01 in0.3 mm
08:24 AM 42.8°F6.0°C 39.4°F4.1°C 88% 3.4 mph NE5.5 kmh NE 4.5 mph7.2 kmh 30.12 in1020.0 mb 0.00 in0.0 mm 0.00 in0.0 mm 0.01 in0.3 mm
08:29 AM 42.6°F5.9°C 39.2°F4.0°C 88% 1.8 mph ESE2.9 kmh ESE 3.4 mph5.5 kmh 30.12 in1020.0 mb 0.00 in0.0 mm 0.00 in0.0 mm 0.01 in0.3 mm
08:34 AM 42.8°F6.0°C 39.4°F4.1°C 88% 3.6 mph NE5.8 kmh NE 4.5 mph7.2 kmh 30.12 in1020.0 mb 0.00 in0.0 mm 0.00 in0.0 mm 0.01 in0.3 mm
08:39 AM 42.1°F5.6°C 39.4°F4.1°C 90% 3.4 mph NE5.5 kmh NE 4.5 mph7.2 kmh 30.12 in1020.0 mb 0.00 in0.0 mm 0.00 in0.0 mm 0.01 in0.3 mm
08:44 AM 41.5°F5.3°C 38.8°F3.8°C 90% 4.7 mph NE7.6 kmh NE 5.8 mph9.3 kmh 30.12 in1020.0 mb 0.00 in0.0 mm 0.00 in0.0 mm 0.01 in0.3 mm
08:49 AM 41.2°F5.1°C 38.5°F3.6°C 90% 6.3 mph NE10.1 kmh NE 6.9 mph11.1 kmh 30.12 in1020.0 mb 0.00 in0.0 mm 0.00 in0.0 mm 0.01 in0.3 mm
08:54 AM 41.5°F5.3°C 38.5°F3.6°C 89% 2.9 mph ENE4.7 kmh ENE 4.5 mph7.2 kmh 30.13 in1020.3 mb 0.00 in0.0 mm 0.00 in0.0 mm 0.01 in0.3 mm
08:59 AM 41.7°F5.4°C 38.7°F3.7°C 89% 0.9 mph E1.4 kmh E 2.2 mph3.5 kmh 30.13 in1020.3 mb 0.00 in0.0 mm 0.00 in0.0 mm 0.01 in0.3 mm
09:04 AM 42.1°F5.6°C 39.0°F3.9°C 89% 2.0 mph ENE3.2 kmh ENE 3.4 mph5.5 kmh 30.13 in1020.3 mb 0.00 in0.0 mm 0.00 in0.0 mm 0.01 in0.3 mm
09:09 AM 42.1°F5.6°C 38.7°F3.7°C 88% 1.6 mph NE2.6 kmh NE 4.5 mph7.2 kmh 30.13 in1020.3 mb 0.00 in0.0 mm 0.00 in0.0 mm 0.01 in0.3 mm
09:14 AM 42.3°F5.7°C 38.8°F3.8°C 88% 2.5 mph NE4.0 kmh NE 3.4 mph5.5 kmh 30.13 in1020.3 mb 0.00 in0.0 mm 0.00 in0.0 mm 0.01 in0.3 mm
09:19 AM 42.4°F5.8°C 39.0°F3.9°C 88% 0.2 mph ENE0.3 kmh ENE 1.1 mph1.8 kmh 30.13 in1020.3 mb 0.00 in0.0 mm 0.00 in0.0 mm 0.01 in0.3 mm
09:24 AM 42.6°F5.9°C 39.0°F3.9°C 87% 2.9 mph E4.7 kmh E 3.4 mph5.5 kmh 30.13 in1020.3 mb 0.00 in0.0 mm 0.00 in0.0 mm 0.01 in0.3 mm
09:29 AM 43.0°F6.1°C 39.4°F4.1°C 87% 3.8 mph NE6.1 kmh NE 5.8 mph9.3 kmh 30.13 in1020.3 mb 0.00 in0.0 mm 0.00 in0.0 mm 0.01 in0.3 mm
09:34 AM 42.8°F6.0°C 39.0°F3.9°C 86% 1.8 mph E2.9 kmh E 2.2 mph3.5 kmh 30.13 in1020.3 mb 0.00 in0.0 mm 0.00 in0.0 mm 0.01 in0.3 mm
09:39 AM 43.3°F6.3°C 39.7°F4.3°C 87% 2.2 mph E3.5 kmh E 3.4 mph5.5 kmh 30.12 in1020.0 mb 0.00 in0.0 mm 0.00 in0.0 mm 0.01 in0.3 mm
09:44 AM 43.5°F6.4°C 39.9°F4.4°C 87% 1.3 mph E2.1 kmh E 2.2 mph3.5 kmh 30.12 in1020.0 mb 0.00 in0.0 mm 0.00 in0.0 mm 0.01 in0.3 mm
09:49 AM 44.2°F6.8°C 39.7°F4.3°C 84% 2.2 mph E3.5 kmh E 5.8 mph9.3 kmh 30.12 in1020.0 mb 0.00 in0.0 mm 0.00 in0.0 mm 0.01 in0.3 mm
09:54 AM 44.2°F6.8°C 39.4°F4.1°C 83% 2.2 mph ENE3.5 kmh ENE 3.4 mph5.5 kmh 30.13 in1020.3 mb 0.00 in0.0 mm 0.00 in0.0 mm 0.01 in0.3 mm
09:59 AM 44.2°F6.8°C 39.7°F4.3°C 84% 2.0 mph ENE3.2 kmh ENE 3.4 mph5.5 kmh 30.12 in1020.0 mb 0.00 in0.0 mm 0.00 in0.0 mm 0.01 in0.3 mm
10:04 AM 45.0°F7.2°C 39.2°F4.0°C 80% 3.4 mph ENE5.5 kmh ENE 4.5 mph7.2 kmh 30.12 in1020.0 mb 0.00 in0.0 mm 0.00 in0.0 mm 0.01 in0.3 mm
10:09 AM 44.6°F7.0°C 39.4°F4.1°C 82% 1.8 mph NE2.9 kmh NE 2.2 mph3.5 kmh 30.13 in1020.3 mb 0.00 in0.0 mm 0.00 in0.0 mm 0.01 in0.3 mm
10:14 AM 44.2°F6.8°C 38.8°F3.8°C 81% 2.7 mph ENE4.3 kmh ENE 4.5 mph7.2 kmh 30.12 in1020.0 mb 0.00 in0.0 mm 0.00 in0.0 mm 0.01 in0.3 mm
10:19 AM 44.4°F6.9°C 38.7°F3.7°C 80% 2.0 mph E3.2 kmh E 3.4 mph5.5 kmh 30.12 in1020.0 mb 0.00 in0.0 mm 0.00 in0.0 mm 0.01 in0.3 mm
10:24 AM 44.4°F6.9°C 38.7°F3.7°C 80% 0.9 mph E1.4 kmh E 2.2 mph3.5 kmh 30.13 in1020.3 mb 0.00 in0.0 mm 0.00 in0.0 mm 0.01 in0.3 mm
10:29 AM 44.1°F6.7°C 37.9°F3.3°C 79% 2.7 mph ENE4.3 kmh ENE 4.5 mph7.2 kmh 30.13 in1020.3 mb 0.00 in0.0 mm 0.00 in0.0 mm 0.01 in0.3 mm
10:34 AM 43.9°F6.6°C 38.5°F3.6°C 81% 1.8 mph ENE2.9 kmh ENE 2.2 mph3.5 kmh 30.13 in1020.3 mb 0.00 in0.0 mm 0.00 in0.0 mm 0.01 in0.3 mm
10:39 AM 44.1°F6.7°C 38.7°F3.7°C 81% 2.2 mph ENE3.5 kmh ENE 3.4 mph5.5 kmh 30.14 in1020.7 mb 0.00 in0.0 mm 0.00 in0.0 mm 0.01 in0.3 mm
10:44 AM 43.9°F6.6°C 38.5°F3.6°C 81% 2.2 mph NE3.5 kmh NE 3.4 mph5.5 kmh 30.13 in1020.3 mb 0.00 in0.0 mm 0.00 in0.0 mm 0.01 in0.3 mm
10:49 AM 43.7°F6.5°C 38.5°F3.6°C 82% 0.7 mph E1.1 kmh E 2.2 mph3.5 kmh 30.14 in1020.7 mb 0.00 in0.0 mm 0.00 in0.0 mm 0.01 in0.3 mm
10:54 AM 43.9°F6.6°C 39.0°F3.9°C 83% 3.6 mph NNE5.8 kmh NNE 4.5 mph7.2 kmh 30.14 in1020.7 mb 0.00 in0.0 mm 0.00 in0.0 mm 0.01 in0.3 mm
10:59 AM 44.1°F6.7°C 38.8°F3.8°C 82% 3.8 mph ENE6.1 kmh ENE 5.8 mph9.3 kmh 30.14 in1020.7 mb 0.00 in0.0 mm 0.00 in0.0 mm 0.01 in0.3 mm
11:04 AM 43.7°F6.5°C 38.8°F3.8°C 83% 4.5 mph NE7.2 kmh NE 5.8 mph9.3 kmh 30.14 in1020.7 mb 0.00 in0.0 mm 0.00 in0.0 mm 0.01 in0.3 mm
11:09 AM 44.1°F6.7°C 39.2°F4.0°C 83% 4.5 mph NE7.2 kmh NE 5.8 mph9.3 kmh 30.14 in1020.7 mb 0.00 in0.0 mm 0.00 in0.0 mm 0.01 in0.3 mm
11:14 AM 43.7°F6.5°C 38.8°F3.8°C 83% 2.0 mph NE3.2 kmh NE 3.4 mph5.5 kmh 30.14 in1020.7 mb 0.00 in0.0 mm 0.00 in0.0 mm 0.01 in0.3 mm
11:19 AM 43.7°F6.5°C 38.8°F3.8°C 83% 3.8 mph NE6.1 kmh NE 4.5 mph7.2 kmh 30.14 in1020.7 mb 0.00 in0.0 mm 0.00 in0.0 mm 0.01 in0.3 mm
11:24 AM 43.9°F6.6°C 38.7°F3.7°C 82% 0.7 mph E1.1 kmh E 1.1 mph1.8 kmh 30.14 in1020.7 mb 0.00 in0.0 mm 0.00 in0.0 mm 0.01 in0.3 mm
11:29 AM 43.7°F6.5°C 38.8°F3.8°C 83% 1.3 mph ESE2.1 kmh ESE 2.2 mph3.5 kmh 30.14 in1020.7 mb 0.00 in0.0 mm 0.00 in0.0 mm 0.01 in0.3 mm
11:34 AM 43.9°F6.6°C 39.0°F3.9°C 83% 2.2 mph NE3.5 kmh NE 3.4 mph5.5 kmh 30.14 in1020.7 mb 0.00 in0.0 mm 0.00 in0.0 mm 0.01 in0.3 mm
11:39 AM 43.9°F6.6°C 39.0°F3.9°C 83% 4.9 mph ENE7.9 kmh ENE 5.8 mph9.3 kmh 30.15 in1021.0 mb 0.00 in0.0 mm 0.00 in0.0 mm 0.01 in0.3 mm
11:44 AM 43.7°F6.5°C 39.2°F4.0°C 84% 1.8 mph ENE2.9 kmh ENE 3.4 mph5.5 kmh 30.14 in1020.7 mb 0.00 in0.0 mm 0.00 in0.0 mm 0.01 in0.3 mm
11:49 AM 43.3°F6.3°C 38.8°F3.8°C 84% 7.2 mph ENE11.6 kmh ENE 10.3 mph16.6 kmh 30.14 in1020.7 mb 0.00 in0.0 mm 0.00 in0.0 mm 0.01 in0.3 mm
11:54 AM 43.3°F6.3°C 39.2°F4.0°C 85% 3.8 mph ENE6.1 kmh ENE 6.9 mph11.1 kmh 30.15 in1021.0 mb 0.00 in0.0 mm 0.00 in0.0 mm 0.01 in0.3 mm
11:59 AM 43.3°F6.3°C 38.8°F3.8°C 84% 6.9 mph ENE11.1 kmh ENE 8.1 mph13.0 kmh 30.15 in1021.0 mb 0.00 in0.0 mm 0.00 in0.0 mm 0.01 in0.3 mm
12:04 PM 43.7°F6.5°C 38.8°F3.8°C 83% 4.0 mph NE6.4 kmh NE 5.8 mph9.3 kmh 30.15 in1021.0 mb 0.00 in0.0 mm 0.00 in0.0 mm 0.01 in0.3 mm
12:09 PM 43.7°F6.5°C 38.8°F3.8°C 83% 5.8 mph ENE9.3 kmh ENE 6.9 mph11.1 kmh 30.14 in1020.7 mb 0.00 in0.0 mm 0.00 in0.0 mm 0.01 in0.3 mm
12:14 PM 43.7°F6.5°C 39.6°F4.2°C 85% 3.6 mph NE5.8 kmh NE 5.8 mph9.3 kmh 30.15 in1021.0 mb 0.00 in0.0 mm 0.00 in0.0 mm 0.01 in0.3 mm
12:19 PM 43.7°F6.5°C 39.6°F4.2°C 85% 1.3 mph ENE2.1 kmh ENE 4.5 mph7.2 kmh 30.15 in1021.0 mb 0.00 in0.0 mm 0.00 in0.0 mm 0.01 in0.3 mm
12:24 PM 43.3°F6.3°C 39.2°F4.0°C 85% 2.5 mph NE4.0 kmh NE 5.8 mph9.3 kmh 30.15 in1021.0 mb 0.00 in0.0 mm 0.00 in0.0 mm 0.01 in0.3 mm
12:29 PM 43.3°F6.3°C 39.2°F4.0°C 85% 0.7 mph S1.1 kmh S 2.2 mph3.5 kmh 30.15 in1021.0 mb 0.00 in0.0 mm 0.00 in0.0 mm 0.01 in0.3 mm
12:34 PM 43.3°F6.3°C 39.2°F4.0°C 85% 1.3 mph E2.1 kmh E 3.4 mph5.5 kmh 30.14 in1020.7 mb 0.00 in0.0 mm 0.00 in0.0 mm 0.01 in0.3 mm
12:39 PM 43.3°F6.3°C 38.8°F3.8°C 84% 0.2 mph NE0.3 kmh NE 1.1 mph1.8 kmh 30.15 in1021.0 mb 0.00 in0.0 mm 0.00 in0.0 mm 0.01 in0.3 mm
12:44 PM 43.5°F6.4°C 39.0°F3.9°C 84% 3.4 mph NE5.5 kmh NE 5.8 mph9.3 kmh 30.15 in1021.0 mb 0.00 in0.0 mm 0.00 in0.0 mm 0.01 in0.3 mm
12:49 PM 43.5°F6.4°C 39.0°F3.9°C 84% 4.3 mph E6.9 kmh E 5.8 mph9.3 kmh 30.14 in1020.7 mb 0.00 in0.0 mm 0.00 in0.0 mm 0.01 in0.3 mm
12:54 PM 43.7°F6.5°C 38.8°F3.8°C 83% 0.9 mph ENE1.4 kmh ENE 2.2 mph3.5 kmh 30.15 in1021.0 mb 0.00 in0.0 mm 0.00 in0.0 mm 0.01 in0.3 mm
12:59 PM 43.7°F6.5°C 38.8°F3.8°C 83% 0.2 mph E0.3 kmh E 1.1 mph1.8 kmh 30.14 in1020.7 mb 0.00 in0.0 mm 0.00 in0.0 mm 0.01 in0.3 mm
01:04 PM 44.1°F6.7°C 39.2°F4.0°C 83% 1.3 mph NE2.1 kmh NE 3.4 mph5.5 kmh 30.15 in1021.0 mb 0.00 in0.0 mm 0.00 in0.0 mm 0.01 in0.3 mm
01:09 PM 44.1°F6.7°C 38.8°F3.8°C 82% 0.9 mph ENE1.4 kmh ENE 1.1 mph1.8 kmh 30.15 in1021.0 mb 0.00 in0.0 mm 0.00 in0.0 mm 0.01 in0.3 mm
01:14 PM 44.1°F6.7°C 39.2°F4.0°C 83% 0.7 mph E1.1 kmh E 1.1 mph1.8 kmh 30.14 in1020.7 mb 0.00 in0.0 mm 0.00 in0.0 mm 0.01 in0.3 mm
01:19 PM 44.2°F6.8°C 38.8°F3.8°C 81% 2.9 mph NE4.7 kmh NE 4.5 mph7.2 kmh 30.14 in1020.7 mb 0.00 in0.0 mm 0.00 in0.0 mm 0.01 in0.3 mm
01:24 PM 44.2°F6.8°C 39.0°F3.9°C 82% 0.9 mph NE1.4 kmh NE 2.2 mph3.5 kmh 30.15 in1021.0 mb 0.00 in0.0 mm 0.00 in0.0 mm 0.01 in0.3 mm
01:29 PM 44.1°F6.7°C 39.2°F4.0°C 83% 0.9 mph NE1.4 kmh NE 1.1 mph1.8 kmh 30.14 in1020.7 mb 0.00 in0.0 mm 0.00 in0.0 mm 0.01 in0.3 mm
01:34 PM 44.4°F6.9°C 39.2°F4.0°C 82% 2.9 mph NE4.7 kmh NE 4.5 mph7.2 kmh 30.15 in1021.0 mb 0.00 in0.0 mm 0.00 in0.0 mm 0.01 in0.3 mm
01:39 PM 44.2°F6.8°C 39.0°F3.9°C 82% 1.6 mph NE2.6 kmh NE 3.4 mph5.5 kmh 30.15 in1021.0 mb 0.00 in0.0 mm 0.00 in0.0 mm 0.01 in0.3 mm
01:44 PM 44.1°F6.7°C 39.2°F4.0°C 83% 2.2 mph ENE3.5 kmh ENE 4.5 mph7.2 kmh 30.15 in1021.0 mb 0.00 in0.0 mm 0.00 in0.0 mm 0.01 in0.3 mm
01:49 PM 43.9°F6.6°C 39.0°F3.9°C 83% 3.8 mph NE6.1 kmh NE 5.8 mph9.3 kmh 30.15 in1021.0 mb 0.00 in0.0 mm 0.00 in0.0 mm 0.01 in0.3 mm
01:54 PM 43.9°F6.6°C 39.0°F3.9°C 83% 3.4 mph ENE5.5 kmh ENE 5.8 mph9.3 kmh 30.15 in1021.0 mb 0.00 in0.0 mm 0.00 in0.0 mm 0.01 in0.3 mm
01:59 PM 43.7°F6.5°C 38.8°F3.8°C 83% 4.9 mph NE7.9 kmh NE 5.8 mph9.3 kmh 30.15 in1021.0 mb 0.00 in0.0 mm 0.00 in0.0 mm 0.01 in0.3 mm
02:04 PM 43.9°F6.6°C 39.4°F4.1°C 84% 2.5 mph ENE4.0 kmh ENE 3.4 mph5.5 kmh 30.15 in1021.0 mb 0.00 in0.0 mm 0.00 in0.0 mm 0.01 in0.3 mm
02:09 PM 43.9°F6.6°C 39.0°F3.9°C 83% 0.2 mph E0.3 kmh E 1.1 mph1.8 kmh 30.15 in1021.0 mb 0.00 in0.0 mm 0.00 in0.0 mm 0.01 in0.3 mm
02:14 PM 44.1°F6.7°C 38.8°F3.8°C 82% Calm Calm -- 30.15 in1021.0 mb 0.00 in0.0 mm 0.00 in0.0 mm 0.01 in0.3 mm
02:19 PM 44.1°F6.7°C 38.8°F3.8°C 82% Calm Calm -- 30.15 in1021.0 mb 0.00 in0.0 mm 0.00 in0.0 mm 0.01 in0.3 mm
02:24 PM 44.2°F6.8°C 38.8°F3.8°C 81% Calm Calm -- 30.15 in1021.0 mb 0.00 in0.0 mm 0.00 in0.0 mm 0.01 in0.3 mm
02:29 PM 44.1°F6.7°C 39.2°F4.0°C 83% 0.9 mph E1.4 kmh E 2.2 mph3.5 kmh 30.15 in1021.0 mb 0.00 in0.0 mm 0.00 in0.0 mm 0.01 in0.3 mm
02:34 PM 44.1°F6.7°C 39.2°F4.0°C 83% 2.0 mph ENE3.2 kmh ENE 2.2 mph3.5 kmh 30.15 in1021.0 mb 0.00 in0.0 mm 0.00 in0.0 mm 0.01 in0.3 mm
02:39 PM 44.2°F6.8°C 39.7°F4.3°C 84% 0.7 mph E1.1 kmh E 1.1 mph1.8 kmh 30.14 in1020.7 mb 0.00 in0.0 mm 0.00 in0.0 mm 0.01 in0.3 mm
02:44 PM 44.1°F6.7°C 39.6°F4.2°C 84% 0.9 mph N1.4 kmh N 2.2 mph3.5 kmh 30.14 in1020.7 mb 0.00 in0.0 mm 0.00 in0.0 mm 0.01 in0.3 mm
02:49 PM 44.1°F6.7°C 39.6°F4.2°C 84% 3.8 mph NE6.1 kmh NE 4.5 mph7.2 kmh 30.14 in1020.7 mb 0.00 in0.0 mm 0.00 in0.0 mm 0.01 in0.3 mm
02:54 PM 44.1°F6.7°C 39.6°F4.2°C 84% 2.2 mph E3.5 kmh E 3.4 mph5.5 kmh 30.14 in1020.7 mb 0.00 in0.0 mm 0.00 in0.0 mm 0.01 in0.3 mm
02:59 PM 43.7°F6.5°C 39.2°F4.0°C 84% Calm Calm -- 30.14 in1020.7 mb 0.00 in0.0 mm 0.00 in0.0 mm 0.01 in0.3 mm
03:04 PM 43.9°F6.6°C 39.7°F4.3°C 85% 0.2 mph E0.3 kmh E 1.1 mph1.8 kmh 30.14 in1020.7 mb 0.00 in0.0 mm 0.00 in0.0 mm 0.01 in0.3 mm
03:09 PM 43.7°F6.5°C 39.6°F4.2°C 85% 0.9 mph ENE1.4 kmh ENE 1.1 mph1.8 kmh 30.14 in1020.7 mb 0.00 in0.0 mm 0.00 in0.0 mm 0.01 in0.3 mm
03:14 PM 44.2°F6.8°C 39.4°F4.1°C 83% 0.9 mph E1.4 kmh E 1.1 mph1.8 kmh 30.14 in1020.7 mb 0.00 in0.0 mm 0.00 in0.0 mm 0.01 in0.3 mm
03:19 PM 44.8°F7.1°C 39.4°F4.1°C 81% Calm Calm -- 30.14 in1020.7 mb 0.00 in0.0 mm 0.00 in0.0 mm 0.01 in0.3 mm
03:24 PM 45.1°F7.3°C 39.6°F4.2°C 81% 0.9 mph S1.4 kmh S 1.1 mph1.8 kmh 30.14 in1020.7 mb 0.00 in0.0 mm 0.00 in0.0 mm 0.01 in0.3 mm
03:29 PM 45.5°F7.5°C 39.7°F4.3°C 80% Calm Calm -- 30.14 in1020.7 mb 0.00 in0.0 mm 0.00 in0.0 mm 0.01 in0.3 mm
03:34 PM 45.7°F7.6°C 39.9°F4.4°C 80% 0.2 mph S0.3 kmh S 1.1 mph1.8 kmh 30.14 in1020.7 mb 0.00 in0.0 mm 0.00 in0.0 mm 0.01 in0.3 mm
03:39 PM 45.3°F7.4°C 39.7°F4.3°C 81% 0.2 mph E0.3 kmh E 1.1 mph1.8 kmh 30.13 in1020.3 mb 0.00 in0.0 mm 0.00 in0.0 mm 0.01 in0.3 mm
03:44 PM 44.8°F7.1°C 39.6°F4.2°C 82% Calm Calm -- 30.13 in1020.3 mb 0.00 in0.0 mm 0.00 in0.0 mm 0.01 in0.3 mm
03:49 PM 44.8°F7.1°C 39.6°F4.2°C 82% Calm Calm -- 30.13 in1020.3 mb 0.00 in0.0 mm 0.00 in0.0 mm 0.01 in0.3 mm
03:54 PM 45.0°F7.2°C 39.2°F4.0°C 80% Calm Calm -- 30.14 in1020.7 mb 0.00 in0.0 mm 0.00 in0.0 mm 0.01 in0.3 mm
03:59 PM 45.5°F7.5°C 39.7°F4.3°C 80% Calm Calm -- 30.13 in1020.3 mb 0.00 in0.0 mm 0.00 in0.0 mm 0.01 in0.3 mm
04:04 PM 46.2°F7.9°C 40.1°F4.5°C 79% 0.7 mph SE1.1 kmh SE 1.1 mph1.8 kmh 30.13 in1020.3 mb 0.00 in0.0 mm 0.00 in0.0 mm 0.01 in0.3 mm
04:09 PM 46.6°F8.1°C 39.7°F4.3°C 77% Calm Calm -- 30.13 in1020.3 mb 0.00 in0.0 mm 0.00 in0.0 mm 0.01 in0.3 mm
04:14 PM 46.2°F7.9°C 39.7°F4.3°C 78% Calm Calm -- 30.12 in1020.0 mb 0.00 in0.0 mm 0.00 in0.0 mm 0.01 in0.3 mm
04:19 PM 45.7°F7.6°C 39.6°F4.2°C 79% Calm Calm -- 30.12 in1020.0 mb 0.00 in0.0 mm 0.00 in0.0 mm 0.01 in0.3 mm
04:24 PM 46.0°F7.8°C 39.6°F4.2°C 78% Calm Calm -- 30.12 in1020.0 mb 0.00 in0.0 mm 0.00 in0.0 mm 0.01 in0.3 mm
04:29 PM 45.9°F7.7°C 39.7°F4.3°C 79% Calm Calm -- 30.12 in1020.0 mb 0.00 in0.0 mm 0.00 in0.0 mm 0.01 in0.3 mm
04:34 PM 46.2°F7.9°C 39.7°F4.3°C 78% 1.3 mph NE2.1 kmh NE 2.2 mph3.5 kmh 30.12 in1020.0 mb 0.00 in0.0 mm 0.00 in0.0 mm 0.01 in0.3 mm
04:39 PM 46.0°F7.8°C 39.9°F4.4°C 79% 2.2 mph NE3.5 kmh NE 3.4 mph5.5 kmh 30.12 in1020.0 mb 0.00 in0.0 mm 0.00 in0.0 mm 0.01 in0.3 mm
04:44 PM 45.7°F7.6°C 39.6°F4.2°C 79% 2.0 mph NE3.2 kmh NE 2.2 mph3.5 kmh 30.12 in1020.0 mb 0.00 in0.0 mm 0.00 in0.0 mm 0.01 in0.3 mm
04:49 PM 45.7°F7.6°C 39.9°F4.4°C 80% 2.0 mph NE3.2 kmh NE 2.2 mph3.5 kmh 30.12 in1020.0 mb 0.00 in0.0 mm 0.00 in0.0 mm 0.01 in0.3 mm
04:54 PM 45.9°F7.7°C 40.3°F4.6°C 81% 0.4 mph E0.6 kmh E 1.1 mph1.8 kmh 30.12 in1020.0 mb 0.00 in0.0 mm 0.00 in0.0 mm 0.01 in0.3 mm
04:59 PM 45.9°F7.7°C 39.7°F4.3°C 79% 1.3 mph E2.1 kmh E 2.2 mph3.5 kmh 30.12 in1020.0 mb 0.00 in0.0 mm 0.00 in0.0 mm 0.01 in0.3 mm
05:04 PM 45.9°F7.7°C 39.7°F4.3°C 79% 0.4 mph ENE0.6 kmh ENE 1.1 mph1.8 kmh 30.12 in1020.0 mb 0.00 in0.0 mm 0.00 in0.0 mm 0.01 in0.3 mm
05:09 PM 45.7°F7.6°C 39.9°F4.4°C 80% Calm Calm -- 30.12 in1020.0 mb 0.00 in0.0 mm 0.00 in0.0 mm 0.01 in0.3 mm
05:14 PM 45.9°F7.7°C 39.7°F4.3°C 79% Calm Calm -- 30.12 in1020.0 mb 0.00 in0.0 mm 0.00 in0.0 mm 0.01 in0.3 mm
05:19 PM 46.0°F7.8°C 39.6°F4.2°C 78% Calm Calm -- 30.12 in1020.0 mb 0.00 in0.0 mm 0.00 in0.0 mm 0.01 in0.3 mm
05:24 PM 46.2°F7.9°C 39.7°F4.3°C 78% Calm Calm -- 30.12 in1020.0 mb 0.00 in0.0 mm 0.00 in0.0 mm 0.01 in0.3 mm
05:29 PM 46.2°F7.9°C 39.7°F4.3°C 78% 0.9 mph ENE1.4 kmh ENE 2.2 mph3.5 kmh 30.12 in1020.0 mb 0.00 in0.0 mm 0.00 in0.0 mm 0.01 in0.3 mm
05:34 PM 46.4°F8.0°C 39.9°F4.4°C 78% 0.7 mph E1.1 kmh E 2.2 mph3.5 kmh 30.12 in1020.0 mb 0.00 in0.0 mm 0.00 in0.0 mm 0.01 in0.3 mm
05:39 PM 46.4°F8.0°C 39.6°F4.2°C 77% 0.2 mph ENE0.3 kmh ENE 1.1 mph1.8 kmh 30.12 in1020.0 mb 0.00 in0.0 mm 0.00 in0.0 mm 0.01 in0.3 mm
05:44 PM 46.0°F7.8°C 39.2°F4.0°C 77% 1.1 mph E1.8 kmh E 1.1 mph1.8 kmh 30.13 in1020.3 mb 0.00 in0.0 mm 0.00 in0.0 mm 0.01 in0.3 mm
05:49 PM 46.0°F7.8°C 39.6°F4.2°C 78% 0.9 mph E1.4 kmh E 1.1 mph1.8 kmh 30.12 in1020.0 mb 0.00 in0.0 mm 0.00 in0.0 mm 0.01 in0.3 mm
05:54 PM 46.0°F7.8°C 39.2°F4.0°C 77% 1.1 mph ENE1.8 kmh ENE 2.2 mph3.5 kmh 30.11 in1019.6 mb 0.00 in0.0 mm 0.00 in0.0 mm 0.01 in0.3 mm
05:59 PM 46.0°F7.8°C 38.8°F3.8°C 76% Calm Calm -- 30.13 in1020.3 mb 0.00 in0.0 mm 0.00 in0.0 mm 0.01 in0.3 mm
06:04 PM 46.0°F7.8°C 39.6°F4.2°C 78% 0.2 mph E0.3 kmh E 1.1 mph1.8 kmh 30.12 in1020.0 mb 0.00 in0.0 mm 0.00 in0.0 mm 0.01 in0.3 mm
06:09 PM 45.9°F7.7°C 39.4°F4.1°C 78% 0.2 mph ENE0.3 kmh ENE 1.1 mph1.8 kmh 30.12 in1020.0 mb 0.00 in0.0 mm 0.00 in0.0 mm 0.01 in0.3 mm
06:14 PM 45.9°F7.7°C 39.4°F4.1°C 78% 0.9 mph ENE1.4 kmh ENE 1.1 mph1.8 kmh 30.13 in1020.3 mb 0.00 in0.0 mm 0.00 in0.0 mm 0.01 in0.3 mm
06:19 PM 45.9°F7.7°C 39.4°F4.1°C 78% 0.9 mph E1.4 kmh E 1.1 mph1.8 kmh 30.12 in1020.0 mb 0.00 in0.0 mm 0.00 in0.0 mm 0.01 in0.3 mm
06:24 PM 45.9°F7.7°C 39.7°F4.3°C 79% Calm Calm -- 30.12 in1020.0 mb 0.00 in0.0 mm 0.00 in0.0 mm 0.01 in0.3 mm
06:29 PM 45.5°F7.5°C 39.0°F3.9°C 78% Calm Calm -- 30.12 in1020.0 mb 0.00 in0.0 mm 0.00 in0.0 mm 0.01 in0.3 mm
06:34 PM 45.5°F7.5°C 39.4°F4.1°C 79% Calm Calm -- 30.11 in1019.6 mb 0.00 in0.0 mm 0.00 in0.0 mm 0.01 in0.3 mm
06:39 PM 45.3°F7.4°C 39.6°F4.2°C 80% 0.2 mph E0.3 kmh E 1.1 mph1.8 kmh 30.12 in1020.0 mb 0.00 in0.0 mm 0.00 in0.0 mm 0.01 in0.3 mm
06:44 PM 45.1°F7.3°C 39.0°F3.9°C 79% 1.1 mph E1.8 kmh E 2.2 mph3.5 kmh 30.10 in1019.3 mb 0.00 in0.0 mm 0.00 in0.0 mm 0.01 in0.3 mm
06:49 PM 45.1°F7.3°C 39.4°F4.1°C 80% 1.1 mph E1.8 kmh E 1.1 mph1.8 kmh 30.11 in1019.6 mb 0.00 in0.0 mm 0.00 in0.0 mm 0.01 in0.3 mm
06:54 PM 45.1°F7.3°C 39.4°F4.1°C 80% 1.8 mph E2.9 kmh E 2.2 mph3.5 kmh 30.10 in1019.3 mb 0.00 in0.0 mm 0.00 in0.0 mm 0.01 in0.3 mm
06:59 PM 45.3°F7.4°C 39.7°F4.3°C 81% 0.9 mph E1.4 kmh E 2.2 mph3.5 kmh 30.11 in1019.6 mb 0.00 in0.0 mm 0.00 in0.0 mm 0.01 in0.3 mm
07:04 PM 45.5°F7.5°C 39.7°F4.3°C 80% 0.9 mph E1.4 kmh E 2.2 mph3.5 kmh 30.10 in1019.3 mb 0.00 in0.0 mm 0.00 in0.0 mm 0.01 in0.3 mm
07:09 PM 45.1°F7.3°C 39.6°F4.2°C 81% 0.9 mph ESE1.4 kmh ESE 1.1 mph1.8 kmh 30.10 in1019.3 mb 0.00 in0.0 mm 0.00 in0.0 mm 0.01 in0.3 mm
07:14 PM 44.8°F7.1°C 39.6°F4.2°C 82% Calm Calm -- 30.11 in1019.6 mb 0.00 in0.0 mm 0.00 in0.0 mm 0.01 in0.3 mm
07:19 PM 44.4°F6.9°C 39.2°F4.0°C 82% 0.9 mph E1.4 kmh E 1.1 mph1.8 kmh 30.10 in1019.3 mb 0.00 in0.0 mm 0.00 in0.0 mm 0.01 in0.3 mm
07:24 PM 44.2°F6.8°C 39.4°F4.1°C 83% 0.9 mph E1.4 kmh E 1.1 mph1.8 kmh 30.11 in1019.6 mb 0.00 in0.0 mm 0.00 in0.0 mm 0.01 in0.3 mm
07:29 PM 44.2°F6.8°C 39.4°F4.1°C 83% 0.7 mph E1.1 kmh E 1.1 mph1.8 kmh 30.10 in1019.3 mb 0.00 in0.0 mm 0.00 in0.0 mm 0.01 in0.3 mm
07:34 PM 44.1°F6.7°C 39.2°F4.0°C 83% 1.1 mph E1.8 kmh E 1.1 mph1.8 kmh 30.10 in1019.3 mb 0.00 in0.0 mm 0.00 in0.0 mm 0.01 in0.3 mm
07:39 PM 44.1°F6.7°C 39.6°F4.2°C 84% Calm Calm -- 30.11 in1019.6 mb 0.00 in0.0 mm 0.00 in0.0 mm 0.01 in0.3 mm
07:44 PM 44.2°F6.8°C 39.0°F3.9°C 82% 0.7 mph ESE1.1 kmh ESE 1.1 mph1.8 kmh 30.11 in1019.6 mb 0.00 in0.0 mm 0.00 in0.0 mm 0.01 in0.3 mm
07:49 PM 44.4°F6.9°C 39.6°F4.2°C 83% 0.2 mph E0.3 kmh E 1.1 mph1.8 kmh 30.11 in1019.6 mb 0.00 in0.0 mm 0.00 in0.0 mm 0.01 in0.3 mm
07:54 PM 44.2°F6.8°C 39.4°F4.1°C 83% 0.2 mph E0.3 kmh E 1.1 mph1.8 kmh 30.10 in1019.3 mb 0.00 in0.0 mm 0.00 in0.0 mm 0.01 in0.3 mm
07:59 PM 44.2°F6.8°C 39.4°F4.1°C 83% 0.9 mph ENE1.4 kmh ENE 1.1 mph1.8 kmh 30.11 in1019.6 mb 0.00 in0.0 mm 0.00 in0.0 mm 0.01 in0.3 mm
08:04 PM 44.2°F6.8°C 39.7°F4.3°C 84% 0.7 mph E1.1 kmh E 1.1 mph1.8 kmh 30.12 in1020.0 mb 0.00 in0.0 mm 0.00 in0.0 mm 0.01 in0.3 mm
08:09 PM 44.2°F6.8°C 39.7°F4.3°C 84% 1.8 mph ENE2.9 kmh ENE 2.2 mph3.5 kmh 30.11 in1019.6 mb 0.00 in0.0 mm 0.00 in0.0 mm 0.01 in0.3 mm
08:14 PM 44.2°F6.8°C 39.7°F4.3°C 84% 1.8 mph NE2.9 kmh NE 2.2 mph3.5 kmh 30.12 in1020.0 mb 0.00 in0.0 mm 0.00 in0.0 mm 0.01 in0.3 mm
08:19 PM 44.2°F6.8°C 39.7°F4.3°C 84% 0.9 mph E1.4 kmh E 1.1 mph1.8 kmh 30.11 in1019.6 mb 0.00 in0.0 mm 0.00 in0.0 mm 0.01 in0.3 mm
08:24 PM 44.2°F6.8°C 39.4°F4.1°C 83% 0.9 mph ESE1.4 kmh ESE 1.1 mph1.8 kmh 30.12 in1020.0 mb 0.00 in0.0 mm 0.00 in0.0 mm 0.01 in0.3 mm
08:29 PM 44.8°F7.1°C 39.0°F3.9°C 80% 1.3 mph NE2.1 kmh NE 3.4 mph5.5 kmh 30.11 in1019.6 mb 0.00 in0.0 mm 0.00 in0.0 mm 0.01 in0.3 mm
08:34 PM 45.0°F7.2°C 39.2°F4.0°C 80% 2.9 mph NE4.7 kmh NE 3.4 mph5.5 kmh 30.11 in1019.6 mb 0.00 in0.0 mm 0.00 in0.0 mm 0.01 in0.3 mm
08:39 PM 45.0°F7.2°C 39.6°F4.2°C 81% 1.1 mph ENE1.8 kmh ENE 2.2 mph3.5 kmh 30.11 in1019.6 mb 0.00 in0.0 mm 0.00 in0.0 mm 0.01 in0.3 mm
08:44 PM 44.8°F7.1°C 39.9°F4.4°C 83% 0.2 mph E0.3 kmh E 1.1 mph1.8 kmh 30.12 in1020.0 mb 0.00 in0.0 mm 0.00 in0.0 mm 0.01 in0.3 mm
08:49 PM 44.6°F7.0°C 39.7°F4.3°C 83% 1.3 mph ESE2.1 kmh ESE 2.2 mph3.5 kmh 30.12 in1020.0 mb 0.00 in0.0 mm 0.00 in0.0 mm 0.01 in0.3 mm
08:54 PM 44.6°F7.0°C 39.7°F4.3°C 83% 0.7 mph E1.1 kmh E 2.2 mph3.5 kmh 30.12 in1020.0 mb 0.00 in0.0 mm 0.00 in0.0 mm 0.01 in0.3 mm
08:59 PM 44.8°F7.1°C 39.6°F4.2°C 82% 1.8 mph ENE2.9 kmh ENE 2.2 mph3.5 kmh 30.12 in1020.0 mb 0.00 in0.0 mm 0.00 in0.0 mm 0.01 in0.3 mm
09:04 PM 45.0°F7.2°C 39.6°F4.2°C 81% 1.8 mph ENE2.9 kmh ENE 3.4 mph5.5 kmh 30.12 in1020.0 mb 0.00 in0.0 mm 0.00 in0.0 mm 0.01 in0.3 mm
09:09 PM 45.0°F7.2°C 39.7°F4.3°C 82% 1.3 mph ENE2.1 kmh ENE 2.2 mph3.5 kmh 30.12 in1020.0 mb 0.00 in0.0 mm 0.00 in0.0 mm 0.01 in0.3 mm
09:14 PM 45.0°F7.2°C 39.6°F4.2°C 81% 2.0 mph ENE3.2 kmh ENE 2.2 mph3.5 kmh 30.12 in1020.0 mb 0.00 in0.0 mm 0.00 in0.0 mm 0.01 in0.3 mm
09:19 PM 45.0°F7.2°C 39.7°F4.3°C 82% Calm Calm -- 30.12 in1020.0 mb 0.00 in0.0 mm 0.00 in0.0 mm 0.01 in0.3 mm
09:24 PM 44.8°F7.1°C 39.6°F4.2°C 82% 0.2 mph E0.3 kmh E 1.1 mph1.8 kmh 30.12 in1020.0 mb 0.00 in0.0 mm 0.00 in0.0 mm 0.01 in0.3 mm
09:29 PM 44.6°F7.0°C 39.7°F4.3°C 83% 1.1 mph E1.8 kmh E 1.1 mph1.8 kmh 30.12 in1020.0 mb 0.00 in0.0 mm 0.00 in0.0 mm 0.01 in0.3 mm
09:34 PM 44.6°F7.0°C 39.7°F4.3°C 83% 0.7 mph N1.1 kmh N 1.1 mph1.8 kmh 30.12 in1020.0 mb 0.00 in0.0 mm 0.00 in0.0 mm 0.01 in0.3 mm
09:39 PM 44.6°F7.0°C 40.1°F4.5°C 84% Calm Calm -- 30.12 in1020.0 mb 0.00 in0.0 mm 0.00 in0.0 mm 0.01 in0.3 mm
09:44 PM 44.8°F7.1°C 39.9°F4.4°C 83% 1.3 mph E2.1 kmh E 2.2 mph3.5 kmh 30.12 in1020.0 mb 0.00 in0.0 mm 0.00 in0.0 mm 0.01 in0.3 mm
09:49 PM 44.6°F7.0°C 40.1°F4.5°C 84% 1.3 mph S2.1 kmh S 2.2 mph3.5 kmh 30.12 in1020.0 mb 0.00 in0.0 mm 0.00 in0.0 mm 0.01 in0.3 mm
09:54 PM 44.6°F7.0°C 40.1°F4.5°C 84% 0.9 mph ESE1.4 kmh ESE 1.1 mph1.8 kmh 30.12 in1020.0 mb 0.00 in0.0 mm 0.00 in0.0 mm 0.01 in0.3 mm
09:59 PM 44.6°F7.0°C 40.1°F4.5°C 84% Calm Calm -- 30.12 in1020.0 mb 0.00 in0.0 mm 0.00 in0.0 mm 0.01 in0.3 mm
10:04 PM 44.6°F7.0°C 40.1°F4.5°C 84% 0.2 mph E0.3 kmh E 1.1 mph1.8 kmh 30.12 in1020.0 mb 0.00 in0.0 mm 0.00 in0.0 mm 0.01 in0.3 mm
10:09 PM 44.6°F7.0°C 40.5°F4.7°C 85% 0.2 mph E0.3 kmh E 1.1 mph1.8 kmh 30.12 in1020.0 mb 0.00 in0.0 mm 0.00 in0.0 mm 0.01 in0.3 mm
10:14 PM 44.6°F7.0°C 40.1°F4.5°C 84% Calm Calm -- 30.12 in1020.0 mb 0.00 in0.0 mm 0.00 in0.0 mm 0.01 in0.3 mm
10:19 PM 44.6°F7.0°C 40.1°F4.5°C 84% 0.7 mph E1.1 kmh E 1.1 mph1.8 kmh 30.12 in1020.0 mb 0.00 in0.0 mm 0.00 in0.0 mm 0.01 in0.3 mm
10:24 PM 44.6°F7.0°C 40.1°F4.5°C 84% 1.3 mph E2.1 kmh E 2.2 mph3.5 kmh 30.12 in1020.0 mb 0.00 in0.0 mm 0.00 in0.0 mm 0.01 in0.3 mm
10:29 PM 44.8°F7.1°C 40.3°F4.6°C 84% 0.7 mph E1.1 kmh E 1.1 mph1.8 kmh 30.12 in1020.0 mb 0.00 in0.0 mm 0.00 in0.0 mm 0.01 in0.3 mm
10:34 PM 44.6°F7.0°C 40.5°F4.7°C 85% 0.4 mph E0.6 kmh E 1.1 mph1.8 kmh 30.12 in1020.0 mb 0.00 in0.0 mm 0.00 in0.0 mm 0.01 in0.3 mm
10:39 PM 44.6°F7.0°C 40.5°F4.7°C 85% Calm Calm -- 30.12 in1020.0 mb 0.00 in0.0 mm 0.00 in0.0 mm 0.01 in0.3 mm
10:44 PM 44.4°F6.9°C 40.3°F4.6°C 85% Calm Calm -- 30.12 in1020.0 mb 0.00 in0.0 mm 0.00 in0.0 mm 0.01 in0.3 mm
10:49 PM 44.4°F6.9°C 39.9°F4.4°C 84% Calm Calm -- 30.12 in1020.0 mb 0.00 in0.0 mm 0.00 in0.0 mm 0.01 in0.3 mm
10:54 PM 44.6°F7.0°C 40.1°F4.5°C 84% Calm Calm -- 30.12 in1020.0 mb 0.00 in0.0 mm 0.00 in0.0 mm 0.01 in0.3 mm
10:59 PM 44.6°F7.0°C 40.5°F4.7°C 85% Calm Calm -- 30.12 in1020.0 mb 0.00 in0.0 mm 0.00 in0.0 mm 0.01 in0.3 mm
11:04 PM 44.6°F7.0°C 40.5°F4.7°C 85% 0.7 mph E1.1 kmh E 1.1 mph1.8 kmh 30.13 in1020.3 mb 0.00 in0.0 mm 0.00 in0.0 mm 0.01 in0.3 mm
11:09 PM 44.6°F7.0°C 40.5°F4.7°C 85% Calm Calm -- 30.12 in1020.0 mb 0.00 in0.0 mm 0.00 in0.0 mm 0.01 in0.3 mm
11:14 PM 44.6°F7.0°C 40.5°F4.7°C 85% 0.9 mph E1.4 kmh E 1.1 mph1.8 kmh 30.12 in1020.0 mb 0.00 in0.0 mm 0.00 in0.0 mm 0.01 in0.3 mm
11:19 PM 44.8°F7.1°C 40.3°F4.6°C 84% 1.8 mph E2.9 kmh E 2.2 mph3.5 kmh 30.11 in1019.6 mb 0.00 in0.0 mm 0.00 in0.0 mm 0.01 in0.3 mm
11:24 PM 44.6°F7.0°C 40.1°F4.5°C 84% 1.1 mph E1.8 kmh E 1.1 mph1.8 kmh 30.11 in1019.6 mb 0.00 in0.0 mm 0.00 in0.0 mm 0.01 in0.3 mm
11:29 PM 44.8°F7.1°C 40.3°F4.6°C 84% 0.9 mph E1.4 kmh E 1.1 mph1.8 kmh 30.12 in1020.0 mb 0.00 in0.0 mm 0.00 in0.0 mm 0.01 in0.3 mm
11:34 PM 44.8°F7.1°C 40.3°F4.6°C 84% 0.9 mph E1.4 kmh E 1.1 mph1.8 kmh 30.11 in1019.6 mb 0.00 in0.0 mm 0.00 in0.0 mm 0.01 in0.3 mm
11:39 PM 44.6°F7.0°C 40.5°F4.7°C 85% 0.7 mph E1.1 kmh E 1.1 mph1.8 kmh 30.12 in1020.0 mb 0.00 in0.0 mm 0.00 in0.0 mm 0.01 in0.3 mm
11:44 PM 44.8°F7.1°C 40.5°F4.7°C 85% 0.2 mph E0.3 kmh E 1.1 mph1.8 kmh 30.11 in1019.6 mb 0.00 in0.0 mm 0.00 in0.0 mm 0.01 in0.3 mm
11:49 PM 44.8°F7.1°C 40.8°F4.9°C 86% 0.2 mph E0.3 kmh E 1.1 mph1.8 kmh 30.11 in1019.6 mb 0.00 in0.0 mm 0.00 in0.0 mm 0.01 in0.3 mm
11:54 PM 44.6°F7.0°C 40.6°F4.8°C 86% Calm Calm -- 30.11 in1019.6 mb 0.00 in0.0 mm 0.00 in0.0 mm 0.01 in0.3 mm